sensor_id;sensor_type;location;lat;lon;timestamp;temperature;humidity
3334;DHT22;1679;50.392;8.008;2023-09-19T00:00:21;16.20;99.90
3334;DHT22;1679;50.392;8.008;2023-09-19T00:02:52;16.20;99.90
3334;DHT22;1679;50.392;8.008;2023-09-19T00:05:19;16.20;99.90
3334;DHT22;1679;50.392;8.008;2023-09-19T00:07:53;16.10;99.90
3334;DHT22;1679;50.392;8.008;2023-09-19T00:10:20;16.10;99.90
3334;DHT22;1679;50.392;8.008;2023-09-19T00:12:48;16.10;99.90
3334;DHT22;1679;50.392;8.008;2023-09-19T00:15:14;16.10;99.90
3334;DHT22;1679;50.392;8.008;2023-09-19T00:17:44;16.10;99.90
3334;DHT22;1679;50.392;8.008;2023-09-19T00:20:10;16.00;99.90
3334;DHT22;1679;50.392;8.008;2023-09-19T00:22:41;16.00;99.90
3334;DHT22;1679;50.392;8.008;2023-09-19T00:25:09;16.00;99.90
3334;DHT22;1679;50.392;8.008;2023-09-19T00:27:41;16.00;99.90
3334;DHT22;1679;50.392;8.008;2023-09-19T00:30:09;16.00;99.90
3334;DHT22;1679;50.392;8.008;2023-09-19T00:32:40;16.00;99.90
3334;DHT22;1679;50.392;8.008;2023-09-19T00:35:06;16.00;99.90
3334;DHT22;1679;50.392;8.008;2023-09-19T00:37:34;16.00;99.90
3334;DHT22;1679;50.392;8.008;2023-09-19T00:40:00;16.00;99.90
3334;DHT22;1679;50.392;8.008;2023-09-19T00:42:26;16.00;99.90
3334;DHT22;1679;50.392;8.008;2023-09-19T00:44:52;16.00;99.90
3334;DHT22;1679;50.392;8.008;2023-09-19T00:47:18;16.00;99.90
3334;DHT22;1679;50.392;8.008;2023-09-19T00:49:45;15.90;99.90
3334;DHT22;1679;50.392;8.008;2023-09-19T00:52:14;15.90;99.90
3334;DHT22;1679;50.392;8.008;2023-09-19T00:54:40;15.90;99.90
3334;DHT22;1679;50.392;8.008;2023-09-19T00:57:06;15.90;99.90
3334;DHT22;1679;50.392;8.008;2023-09-19T00:59:33;15.80;99.90
3334;DHT22;1679;50.392;8.008;2023-09-19T01:02:02;15.80;99.90
3334;DHT22;1679;50.392;8.008;2023-09-19T01:04:29;15.80;99.90
3334;DHT22;1679;50.392;8.008;2023-09-19T01:06:56;15.70;99.90
3334;DHT22;1679;50.392;8.008;2023-09-19T01:09:24;15.70;99.90
3334;DHT22;1679;50.392;8.008;2023-09-19T01:11:50;15.70;99.90
3334;DHT22;1679;50.392;8.008;2023-09-19T01:17:16;15.60;99.90
3334;DHT22;1679;50.392;8.008;2023-09-19T01:20:25;15.60;99.90
3334;DHT22;1679;50.392;8.008;2023-09-19T01:23:20;15.50;99.90
3334;DHT22;1679;50.392;8.008;2023-09-19T01:26:06;15.50;99.90
3334;DHT22;1679;50.392;8.008;2023-09-19T01:28:43;15.50;99.90
3334;DHT22;1679;50.392;8.008;2023-09-19T01:31:13;15.40;99.90
3334;DHT22;1679;50.392;8.008;2023-09-19T01:34:00;15.50;99.90
3334;DHT22;1679;50.392;8.008;2023-09-19T01:36:30;15.50;99.90
3334;DHT22;1679;50.392;8.008;2023-09-19T01:38:57;15.50;99.90
3334;DHT22;1679;50.392;8.008;2023-09-19T01:41:51;15.50;99.90
3334;DHT22;1679;50.392;8.008;2023-09-19T01:47:32;15.40;99.90
3334;DHT22;1679;50.392;8.008;2023-09-19T01:50:27;15.40;99.90
3334;DHT22;1679;50.392;8.008;2023-09-19T01:53:07;15.40;99.90
3334;DHT22;1679;50.392;8.008;2023-09-19T01:55:42;15.40;99.90
3334;DHT22;1679;50.392;8.008;2023-09-19T01:58:20;15.40;99.90
3334;DHT22;1679;50.392;8.008;2023-09-19T02:00:48;15.40;99.90
3334;DHT22;1679;50.392;8.008;2023-09-19T02:03:18;15.40;99.90
3334;DHT22;1679;50.392;8.008;2023-09-19T02:05:53;15.40;99.90
3334;DHT22;1679;50.392;8.008;2023-09-19T02:08:20;15.40;99.90
3334;DHT22;1679;50.392;8.008;2023-09-19T02:10:50;15.40;99.90
3334;DHT22;1679;50.392;8.008;2023-09-19T02:13:20;15.40;99.90
3334;DHT22;1679;50.392;8.008;2023-09-19T02:15:48;15.40;99.90
3334;DHT22;1679;50.392;8.008;2023-09-19T02:18:13;15.40;99.90
3334;DHT22;1679;50.392;8.008;2023-09-19T02:20:41;15.40;99.90
3334;DHT22;1679;50.392;8.008;2023-09-19T02:23:10;15.40;99.90
3334;DHT22;1679;50.392;8.008;2023-09-19T02:25:35;15.40;99.90
3334;DHT22;1679;50.392;8.008;2023-09-19T02:28:01;15.40;99.90
3334;DHT22;1679;50.392;8.008;2023-09-19T02:30:28;15.40;99.90
3334;DHT22;1679;50.392;8.008;2023-09-19T02:32:54;15.30;99.90
3334;DHT22;1679;50.392;8.008;2023-09-19T02:35:21;15.30;99.90
3334;DHT22;1679;50.392;8.008;2023-09-19T02:37:50;15.30;99.90
3334;DHT22;1679;50.392;8.008;2023-09-19T02:40:17;15.20;99.90
3334;DHT22;1679;50.392;8.008;2023-09-19T02:42:48;15.20;99.90
3334;DHT22;1679;50.392;8.008;2023-09-19T02:45:16;15.20;99.90
3334;DHT22;1679;50.392;8.008;2023-09-19T02:47:44;15.20;99.90
3334;DHT22;1679;50.392;8.008;2023-09-19T02:50:09;15.20;99.90
3334;DHT22;1679;50.392;8.008;2023-09-19T02:52:37;15.20;99.90
3334;DHT22;1679;50.392;8.008;2023-09-19T02:55:03;15.30;99.90
3334;DHT22;1679;50.392;8.008;2023-09-19T02:57:31;15.30;99.90
3334;DHT22;1679;50.392;8.008;2023-09-19T02:59:58;15.30;99.90
3334;DHT22;1679;50.392;8.008;2023-09-19T03:02:26;15.30;99.90
3334;DHT22;1679;50.392;8.008;2023-09-19T03:04:53;15.20;99.90
3334;DHT22;1679;50.392;8.008;2023-09-19T03:07:19;15.20;99.90
3334;DHT22;1679;50.392;8.008;2023-09-19T03:09:44;15.30;99.90
3334;DHT22;1679;50.392;8.008;2023-09-19T03:12:11;15.30;99.90
3334;DHT22;1679;50.392;8.008;2023-09-19T03:14:41;15.30;99.90
3334;DHT22;1679;50.392;8.008;2023-09-19T03:17:08;15.30;99.90
3334;DHT22;1679;50.392;8.008;2023-09-19T03:19:34;15.40;99.90
3334;DHT22;1679;50.392;8.008;2023-09-19T03:22:00;15.40;99.90
3334;DHT22;1679;50.392;8.008;2023-09-19T03:24:25;15.40;99.90
3334;DHT22;1679;50.392;8.008;2023-09-19T03:26:51;15.40;99.90
3334;DHT22;1679;50.392;8.008;2023-09-19T03:29:17;15.40;99.90
3334;DHT22;1679;50.392;8.008;2023-09-19T03:31:43;15.40;99.90
3334;DHT22;1679;50.392;8.008;2023-09-19T03:34:10;15.40;99.90
3334;DHT22;1679;50.392;8.008;2023-09-19T03:36:36;15.40;99.90
3334;DHT22;1679;50.392;8.008;2023-09-19T03:39:02;15.40;99.90
3334;DHT22;1679;50.392;8.008;2023-09-19T03:41:31;15.40;99.90
3334;DHT22;1679;50.392;8.008;2023-09-19T03:43:56;15.40;99.90
3334;DHT22;1679;50.392;8.008;2023-09-19T03:46:22;15.40;99.90
3334;DHT22;1679;50.392;8.008;2023-09-19T03:48:47;15.40;99.90
3334;DHT22;1679;50.392;8.008;2023-09-19T03:51:13;15.40;99.90
3334;DHT22;1679;50.392;8.008;2023-09-19T03:53:39;15.40;99.90
3334;DHT22;1679;50.392;8.008;2023-09-19T03:56:04;15.40;99.90
3334;DHT22;1679;50.392;8.008;2023-09-19T03:58:30;15.40;99.90
3334;DHT22;1679;50.392;8.008;2023-09-19T04:00:56;15.30;99.90
3334;DHT22;1679;50.392;8.008;2023-09-19T04:03:22;15.30;99.90
3334;DHT22;1679;50.392;8.008;2023-09-19T04:05:47;15.30;99.90
3334;DHT22;1679;50.392;8.008;2023-09-19T04:08:13;15.20;99.90
3334;DHT22;1679;50.392;8.008;2023-09-19T04:10:42;15.20;99.90
3334;DHT22;1679;50.392;8.008;2023-09-19T04:13:07;15.10;99.90
3334;DHT22;1679;50.392;8.008;2023-09-19T04:15:33;15.10;99.90
3334;DHT22;1679;50.392;8.008;2023-09-19T04:17:58;15.10;99.90
3334;DHT22;1679;50.392;8.008;2023-09-19T04:20:24;15.10;99.90
3334;DHT22;1679;50.392;8.008;2023-09-19T04:22:49;15.00;99.90
3334;DHT22;1679;50.392;8.008;2023-09-19T04:25:15;15.00;99.90
3334;DHT22;1679;50.392;8.008;2023-09-19T04:27:41;15.00;99.90
3334;DHT22;1679;50.392;8.008;2023-09-19T04:30:09;15.00;99.90
3334;DHT22;1679;50.392;8.008;2023-09-19T04:32:36;14.90;99.90
3334;DHT22;1679;50.392;8.008;2023-09-19T04:35:08;14.90;99.90
3334;DHT22;1679;50.392;8.008;2023-09-19T04:37:40;14.80;99.90
3334;DHT22;1679;50.392;8.008;2023-09-19T04:40:14;14.90;99.90
3334;DHT22;1679;50.392;8.008;2023-09-19T04:42:43;14.90;99.90
3334;DHT22;1679;50.392;8.008;2023-09-19T04:45:08;14.80;99.90
3334;DHT22;1679;50.392;8.008;2023-09-19T04:47:35;14.80;99.90
3334;DHT22;1679;50.392;8.008;2023-09-19T04:50:01;14.80;99.90
3334;DHT22;1679;50.392;8.008;2023-09-19T04:52:26;14.80;99.90
3334;DHT22;1679;50.392;8.008;2023-09-19T04:54:52;14.80;99.90
3334;DHT22;1679;50.392;8.008;2023-09-19T04:57:18;14.80;99.90
3334;DHT22;1679;50.392;8.008;2023-09-19T04:59:43;14.80;99.90
3334;DHT22;1679;50.392;8.008;2023-09-19T05:02:10;14.80;99.90
3334;DHT22;1679;50.392;8.008;2023-09-19T05:04:37;14.90;99.90
3334;DHT22;1679;50.392;8.008;2023-09-19T05:07:03;14.80;99.90
3334;DHT22;1679;50.392;8.008;2023-09-19T05:09:28;14.80;99.90
3334;DHT22;1679;50.392;8.008;2023-09-19T05:11:54;14.80;99.90
3334;DHT22;1679;50.392;8.008;2023-09-19T05:14:19;14.90;99.90
3334;DHT22;1679;50.392;8.008;2023-09-19T05:16:46;14.90;99.90
3334;DHT22;1679;50.392;8.008;2023-09-19T05:19:13;14.90;99.90
3334;DHT22;1679;50.392;8.008;2023-09-19T05:21:38;15.00;99.90
3334;DHT22;1679;50.392;8.008;2023-09-19T05:24:06;15.00;99.90
3334;DHT22;1679;50.392;8.008;2023-09-19T05:26:32;15.00;99.90
3334;DHT22;1679;50.392;8.008;2023-09-19T05:28:58;15.00;99.90
3334;DHT22;1679;50.392;8.008;2023-09-19T05:31:24;15.00;99.90
3334;DHT22;1679;50.392;8.008;2023-09-19T05:33:51;15.00;99.90
3334;DHT22;1679;50.392;8.008;2023-09-19T05:36:20;15.00;99.90
3334;DHT22;1679;50.392;8.008;2023-09-19T05:38:45;15.00;99.90
3334;DHT22;1679;50.392;8.008;2023-09-19T05:41:14;15.00;99.90
3334;DHT22;1679;50.392;8.008;2023-09-19T05:43:41;15.00;99.90
3334;DHT22;1679;50.392;8.008;2023-09-19T05:46:07;15.00;99.90
3334;DHT22;1679;50.392;8.008;2023-09-19T05:48:33;15.00;99.90
3334;DHT22;1679;50.392;8.008;2023-09-19T05:50:59;15.00;99.90
3334;DHT22;1679;50.392;8.008;2023-09-19T05:53:26;15.00;99.90
3334;DHT22;1679;50.392;8.008;2023-09-19T05:55:53;15.00;99.90
3334;DHT22;1679;50.392;8.008;2023-09-19T05:58:19;15.00;99.90
3334;DHT22;1679;50.392;8.008;2023-09-19T06:00:46;15.00;99.90
3334;DHT22;1679;50.392;8.008;2023-09-19T06:03:14;15.00;99.90
3334;DHT22;1679;50.392;8.008;2023-09-19T06:05:40;15.00;99.90
3334;DHT22;1679;50.392;8.008;2023-09-19T06:08:07;15.00;99.90
3334;DHT22;1679;50.392;8.008;2023-09-19T06:10:34;15.10;99.90
3334;DHT22;1679;50.392;8.008;2023-09-19T06:13:01;15.10;99.90
3334;DHT22;1679;50.392;8.008;2023-09-19T06:15:29;15.10;99.90
3334;DHT22;1679;50.392;8.008;2023-09-19T06:17:58;15.10;99.90
3334;DHT22;1679;50.392;8.008;2023-09-19T06:20:25;15.20;99.90
3334;DHT22;1679;50.392;8.008;2023-09-19T06:22:53;15.20;99.90
3334;DHT22;1679;50.392;8.008;2023-09-19T06:25:19;15.20;99.90
3334;DHT22;1679;50.392;8.008;2023-09-19T06:27:49;15.30;99.90
3334;DHT22;1679;50.392;8.008;2023-09-19T06:30:18;15.30;99.90
3334;DHT22;1679;50.392;8.008;2023-09-19T06:32:43;15.40;99.90
3334;DHT22;1679;50.392;8.008;2023-09-19T06:35:10;15.40;99.90
3334;DHT22;1679;50.392;8.008;2023-09-19T06:37:37;15.50;99.90
3334;DHT22;1679;50.392;8.008;2023-09-19T06:40:13;15.60;99.90
3334;DHT22;1679;50.392;8.008;2023-09-19T06:42:43;15.50;99.90
3334;DHT22;1679;50.392;8.008;2023-09-19T06:45:13;15.60;99.90
3334;DHT22;1679;50.392;8.008;2023-09-19T06:47:48;15.70;99.90
3334;DHT22;1679;50.392;8.008;2023-09-19T06:50:21;15.80;99.90
3334;DHT22;1679;50.392;8.008;2023-09-19T06:52:51;15.90;99.90
3334;DHT22;1679;50.392;8.008;2023-09-19T06:55:18;15.90;99.90
3334;DHT22;1679;50.392;8.008;2023-09-19T06:57:45;16.00;99.90
3334;DHT22;1679;50.392;8.008;2023-09-19T07:00:12;16.00;99.90
3334;DHT22;1679;50.392;8.008;2023-09-19T07:02:44;16.10;99.90
3334;DHT22;1679;50.392;8.008;2023-09-19T07:05:10;16.20;99.90
3334;DHT22;1679;50.392;8.008;2023-09-19T07:07:36;16.20;99.90
3334;DHT22;1679;50.392;8.008;2023-09-19T07:10:04;16.10;99.90
3334;DHT22;1679;50.392;8.008;2023-09-19T07:12:31;16.20;99.90
3334;DHT22;1679;50.392;8.008;2023-09-19T07:14:58;16.30;99.90
3334;DHT22;1679;50.392;8.008;2023-09-19T07:17:23;16.40;99.90
3334;DHT22;1679;50.392;8.008;2023-09-19T07:19:49;16.30;99.90
3334;DHT22;1679;50.392;8.008;2023-09-19T07:22:15;16.30;99.90
3334;DHT22;1679;50.392;8.008;2023-09-19T07:24:41;16.30;99.90
3334;DHT22;1679;50.392;8.008;2023-09-19T07:27:07;16.20;99.90
3334;DHT22;1679;50.392;8.008;2023-09-19T07:29:33;16.20;99.90
3334;DHT22;1679;50.392;8.008;2023-09-19T07:31:59;16.30;99.90
3334;DHT22;1679;50.392;8.008;2023-09-19T07:34:24;16.30;99.90
3334;DHT22;1679;50.392;8.008;2023-09-19T07:36:50;16.40;99.90
3334;DHT22;1679;50.392;8.008;2023-09-19T07:39:15;16.40;99.90
3334;DHT22;1679;50.392;8.008;2023-09-19T07:41:41;16.50;99.90
3334;DHT22;1679;50.392;8.008;2023-09-19T07:44:07;16.40;99.90
3334;DHT22;1679;50.392;8.008;2023-09-19T07:46:35;16.60;99.90
3334;DHT22;1679;50.392;8.008;2023-09-19T07:49:00;16.60;99.90
3334;DHT22;1679;50.392;8.008;2023-09-19T07:51:26;16.60;99.90
3334;DHT22;1679;50.392;8.008;2023-09-19T07:53:53;16.80;99.90
3334;DHT22;1679;50.392;8.008;2023-09-19T07:56:20;16.90;99.90
3334;DHT22;1679;50.392;8.008;2023-09-19T07:58:46;17.00;99.90
3334;DHT22;1679;50.392;8.008;2023-09-19T08:01:12;17.20;99.90
3334;DHT22;1679;50.392;8.008;2023-09-19T08:03:39;17.50;99.90
3334;DHT22;1679;50.392;8.008;2023-09-19T08:06:06;17.50;99.90
3334;DHT22;1679;50.392;8.008;2023-09-19T08:08:33;17.60;99.90
3334;DHT22;1679;50.392;8.008;2023-09-19T08:11:02;17.50;99.90
3334;DHT22;1679;50.392;8.008;2023-09-19T08:13:28;17.50;99.90
3334;DHT22;1679;50.392;8.008;2023-09-19T08:15:53;17.50;99.90
3334;DHT22;1679;50.392;8.008;2023-09-19T08:18:19;17.60;99.90
3334;DHT22;1679;50.392;8.008;2023-09-19T08:20:50;17.60;99.90
3334;DHT22;1679;50.392;8.008;2023-09-19T08:23:16;17.50;99.90
3334;DHT22;1679;50.392;8.008;2023-09-19T08:25:47;17.50;99.90
3334;DHT22;1679;50.392;8.008;2023-09-19T08:28:12;17.80;99.90
3334;DHT22;1679;50.392;8.008;2023-09-19T08:30:43;17.90;99.90
3334;DHT22;1679;50.392;8.008;2023-09-19T08:33:08;17.90;99.90
3334;DHT22;1679;50.392;8.008;2023-09-19T08:35:34;18.00;99.90
3334;DHT22;1679;50.392;8.008;2023-09-19T08:38:00;18.10;99.90
3334;DHT22;1679;50.392;8.008;2023-09-19T08:40:30;18.00;99.90
3334;DHT22;1679;50.392;8.008;2023-09-19T08:42:59;18.00;99.90
3334;DHT22;1679;50.392;8.008;2023-09-19T08:45:26;17.90;99.90
3334;DHT22;1679;50.392;8.008;2023-09-19T08:48:27;17.80;99.90
3334;DHT22;1679;50.392;8.008;2023-09-19T08:51:02;17.80;99.90
3334;DHT22;1679;50.392;8.008;2023-09-19T08:53:47;18.00;99.90
3334;DHT22;1679;50.392;8.008;2023-09-19T08:56:17;18.30;99.90
3334;DHT22;1679;50.392;8.008;2023-09-19T08:58:50;18.30;99.90
3334;DHT22;1679;50.392;8.008;2023-09-19T09:01:17;18.40;99.90
3334;DHT22;1679;50.392;8.008;2023-09-19T09:03:53;18.50;99.90
3334;DHT22;1679;50.392;8.008;2023-09-19T09:06:20;18.40;99.90
3334;DHT22;1679;50.392;8.008;2023-09-19T09:08:46;18.30;99.90
3334;DHT22;1679;50.392;8.008;2023-09-19T09:11:15;18.20;99.90
3334;DHT22;1679;50.392;8.008;2023-09-19T09:13:42;18.30;99.90
3334;DHT22;1679;50.392;8.008;2023-09-19T09:16:08;18.40;99.90
3334;DHT22;1679;50.392;8.008;2023-09-19T09:18:35;18.50;99.90
3334;DHT22;1679;50.392;8.008;2023-09-19T09:21:01;18.90;99.90
3334;DHT22;1679;50.392;8.008;2023-09-19T09:23:27;19.00;99.90
3334;DHT22;1679;50.392;8.008;2023-09-19T09:25:55;19.30;99.90
3334;DHT22;1679;50.392;8.008;2023-09-19T09:28:26;19.30;99.90
3334;DHT22;1679;50.392;8.008;2023-09-19T09:30:54;19.30;99.90
3334;DHT22;1679;50.392;8.008;2023-09-19T09:33:21;19.00;99.90
3334;DHT22;1679;50.392;8.008;2023-09-19T09:35:54;19.20;99.90
3334;DHT22;1679;50.392;8.008;2023-09-19T09:38:23;19.30;99.90
3334;DHT22;1679;50.392;8.008;2023-09-19T09:40:55;19.40;99.90
3334;DHT22;1679;50.392;8.008;2023-09-19T09:43:33;19.30;99.90
3334;DHT22;1679;50.392;8.008;2023-09-19T09:46:10;19.10;99.90
3334;DHT22;1679;50.392;8.008;2023-09-19T09:48:58;19.10;99.90
3334;DHT22;1679;50.392;8.008;2023-09-19T09:51:49;19.20;99.90
3334;DHT22;1679;50.392;8.008;2023-09-19T09:54:29;19.50;99.90
3334;DHT22;1679;50.392;8.008;2023-09-19T09:57:07;19.70;99.90
3334;DHT22;1679;50.392;8.008;2023-09-19T09:59:53;19.70;99.90
3334;DHT22;1679;50.392;8.008;2023-09-19T10:02:26;19.80;99.90
3334;DHT22;1679;50.392;8.008;2023-09-19T10:04:56;19.90;99.90
3334;DHT22;1679;50.392;8.008;2023-09-19T10:07:31;20.00;99.90
3334;DHT22;1679;50.392;8.008;2023-09-19T10:09:59;20.20;99.90
3334;DHT22;1679;50.392;8.008;2023-09-19T10:12:36;20.20;99.90
3334;DHT22;1679;50.392;8.008;2023-09-19T10:15:04;20.20;99.90
3334;DHT22;1679;50.392;8.008;2023-09-19T10:17:34;19.80;99.90
3334;DHT22;1679;50.392;8.008;2023-09-19T10:20:01;19.40;99.90
3334;DHT22;1679;50.392;8.008;2023-09-19T10:22:36;19.30;99.90
3334;DHT22;1679;50.392;8.008;2023-09-19T10:25:04;19.20;99.90
3334;DHT22;1679;50.392;8.008;2023-09-19T10:27:32;19.00;99.90
3334;DHT22;1679;50.392;8.008;2023-09-19T10:30:05;18.80;99.90
3334;DHT22;1679;50.392;8.008;2023-09-19T10:32:34;19.00;99.90
3334;DHT22;1679;50.392;8.008;2023-09-19T10:35:02;19.10;99.90
3334;DHT22;1679;50.392;8.008;2023-09-19T10:37:33;19.40;99.90
3334;DHT22;1679;50.392;8.008;2023-09-19T10:39:59;19.60;99.90
3334;DHT22;1679;50.392;8.008;2023-09-19T10:42:25;19.50;99.90
3334;DHT22;1679;50.392;8.008;2023-09-19T10:44:58;19.40;99.90
3334;DHT22;1679;50.392;8.008;2023-09-19T10:47:25;19.50;99.90
3334;DHT22;1679;50.392;8.008;2023-09-19T10:49:51;19.60;99.90
3334;DHT22;1679;50.392;8.008;2023-09-19T10:52:21;19.60;99.90
3334;DHT22;1679;50.392;8.008;2023-09-19T10:54:50;19.60;99.90
3334;DHT22;1679;50.392;8.008;2023-09-19T10:57:21;19.70;99.90
3334;DHT22;1679;50.392;8.008;2023-09-19T11:00:05;19.80;99.90
3334;DHT22;1679;50.392;8.008;2023-09-19T11:05:42;19.90;99.90
3334;DHT22;1679;50.392;8.008;2023-09-19T11:08:10;20.00;99.90
3334;DHT22;1679;50.392;8.008;2023-09-19T11:10:47;19.80;99.90
3334;DHT22;1679;50.392;8.008;2023-09-19T11:13:26;19.70;99.90
3334;DHT22;1679;50.392;8.008;2023-09-19T11:16:04;19.60;99.90
3334;DHT22;1679;50.392;8.008;2023-09-19T11:26:48;19.40;99.90
3334;DHT22;1679;50.392;8.008;2023-09-19T11:29:30;19.40;99.90
3334;DHT22;1679;50.392;8.008;2023-09-19T11:31:57;19.30;99.90
3334;DHT22;1679;50.392;8.008;2023-09-19T11:40:06;19.50;99.90
3334;DHT22;1679;50.392;8.008;2023-09-19T11:42:48;19.60;99.90
3334;DHT22;1679;50.392;8.008;2023-09-19T11:48:16;19.90;99.90
3334;DHT22;1679;50.392;8.008;2023-09-19T11:50:44;19.80;99.90
3334;DHT22;1679;50.392;8.008;2023-09-19T11:53:11;19.50;99.90
3334;DHT22;1679;50.392;8.008;2023-09-19T11:55:38;19.50;99.90
3334;DHT22;1679;50.392;8.008;2023-09-19T11:58:07;19.50;99.90
3334;DHT22;1679;50.392;8.008;2023-09-19T12:00:35;19.60;99.90
3334;DHT22;1679;50.392;8.008;2023-09-19T12:03:07;19.70;99.90
3334;DHT22;1679;50.392;8.008;2023-09-19T12:05:34;19.70;99.90
3334;DHT22;1679;50.392;8.008;2023-09-19T12:08:00;19.70;99.90
3334;DHT22;1679;50.392;8.008;2023-09-19T12:10:27;19.70;99.90
3334;DHT22;1679;50.392;8.008;2023-09-19T12:12:52;19.70;99.90
3334;DHT22;1679;50.392;8.008;2023-09-19T12:15:25;19.80;99.90
3334;DHT22;1679;50.392;8.008;2023-09-19T12:18:00;19.90;99.90
3334;DHT22;1679;50.392;8.008;2023-09-19T12:20:45;19.80;99.90
3334;DHT22;1679;50.392;8.008;2023-09-19T12:23:15;19.80;99.90
3334;DHT22;1679;50.392;8.008;2023-09-19T12:25:45;19.70;99.90
3334;DHT22;1679;50.392;8.008;2023-09-19T12:28:14;19.80;99.90
3334;DHT22;1679;50.392;8.008;2023-09-19T12:30:42;19.80;99.90
3334;DHT22;1679;50.392;8.008;2023-09-19T12:33:20;19.80;99.90
3334;DHT22;1679;50.392;8.008;2023-09-19T12:35:47;19.80;99.90
3334;DHT22;1679;50.392;8.008;2023-09-19T12:38:28;19.80;99.90
3334;DHT22;1679;50.392;8.008;2023-09-19T12:40:57;19.90;99.90
3334;DHT22;1679;50.392;8.008;2023-09-19T12:43:26;19.90;99.90
3334;DHT22;1679;50.392;8.008;2023-09-19T12:45:53;19.90;99.90
3334;DHT22;1679;50.392;8.008;2023-09-19T12:51:07;19.80;99.90
3334;DHT22;1679;50.392;8.008;2023-09-19T12:53:37;19.80;99.90
3334;DHT22;1679;50.392;8.008;2023-09-19T12:56:06;19.70;99.90
3334;DHT22;1679;50.392;8.008;2023-09-19T12:58:34;19.60;99.90
3334;DHT22;1679;50.392;8.008;2023-09-19T13:01:00;19.50;99.90
3334;DHT22;1679;50.392;8.008;2023-09-19T13:03:28;19.60;99.90
3334;DHT22;1679;50.392;8.008;2023-09-19T13:06:01;19.60;99.90
3334;DHT22;1679;50.392;8.008;2023-09-19T13:08:38;19.50;99.90
3334;DHT22;1679;50.392;8.008;2023-09-19T13:11:18;19.50;99.90
3334;DHT22;1679;50.392;8.008;2023-09-19T13:14:12;19.60;99.90
3334;DHT22;1679;50.392;8.008;2023-09-19T13:19:43;19.60;99.90
3334;DHT22;1679;50.392;8.008;2023-09-19T13:22:36;19.80;99.90
3334;DHT22;1679;50.392;8.008;2023-09-19T13:25:04;19.80;99.90
3334;DHT22;1679;50.392;8.008;2023-09-19T13:27:33;19.80;99.90
3334;DHT22;1679;50.392;8.008;2023-09-19T13:29:59;19.80;99.90
3334;DHT22;1679;50.392;8.008;2023-09-19T13:32:25;19.80;99.90
3334;DHT22;1679;50.392;8.008;2023-09-19T13:34:50;19.80;99.90
3334;DHT22;1679;50.392;8.008;2023-09-19T13:37:17;19.90;99.90
3334;DHT22;1679;50.392;8.008;2023-09-19T13:39:43;20.00;99.90
3334;DHT22;1679;50.392;8.008;2023-09-19T13:42:13;20.00;99.90
3334;DHT22;1679;50.392;8.008;2023-09-19T13:44:38;20.10;99.90
3334;DHT22;1679;50.392;8.008;2023-09-19T13:47:04;19.90;99.90
3334;DHT22;1679;50.392;8.008;2023-09-19T13:49:36;19.80;99.90
3334;DHT22;1679;50.392;8.008;2023-09-19T13:52:02;19.90;99.90
3334;DHT22;1679;50.392;8.008;2023-09-19T13:54:32;19.80;99.90
3334;DHT22;1679;50.392;8.008;2023-09-19T13:56:58;19.80;99.90
3334;DHT22;1679;50.392;8.008;2023-09-19T13:59:24;19.80;99.90
3334;DHT22;1679;50.392;8.008;2023-09-19T14:01:50;19.90;99.90
3334;DHT22;1679;50.392;8.008;2023-09-19T14:04:16;19.80;99.90
3334;DHT22;1679;50.392;8.008;2023-09-19T14:06:42;19.80;99.90
3334;DHT22;1679;50.392;8.008;2023-09-19T14:09:08;19.80;99.90
3334;DHT22;1679;50.392;8.008;2023-09-19T14:11:35;19.80;99.90
3334;DHT22;1679;50.392;8.008;2023-09-19T14:14:00;19.80;99.90
3334;DHT22;1679;50.392;8.008;2023-09-19T14:16:26;19.90;99.90
3334;DHT22;1679;50.392;8.008;2023-09-19T14:18:56;19.90;99.90
3334;DHT22;1679;50.392;8.008;2023-09-19T14:21:22;19.90;99.90
3334;DHT22;1679;50.392;8.008;2023-09-19T14:23:48;20.00;99.90
3334;DHT22;1679;50.392;8.008;2023-09-19T14:26:14;19.90;99.90
3334;DHT22;1679;50.392;8.008;2023-09-19T14:28:42;19.90;99.90
3334;DHT22;1679;50.392;8.008;2023-09-19T14:31:10;20.00;99.90
3334;DHT22;1679;50.392;8.008;2023-09-19T14:33:36;19.90;99.90
3334;DHT22;1679;50.392;8.008;2023-09-19T14:36:07;19.90;99.90
3334;DHT22;1679;50.392;8.008;2023-09-19T14:38:34;19.90;99.90
3334;DHT22;1679;50.392;8.008;2023-09-19T14:41:04;19.80;99.90
3334;DHT22;1679;50.392;8.008;2023-09-19T14:43:32;19.90;99.90
3334;DHT22;1679;50.392;8.008;2023-09-19T14:46:07;19.80;99.90
3334;DHT22;1679;50.392;8.008;2023-09-19T14:48:33;19.70;99.90
3334;DHT22;1679;50.392;8.008;2023-09-19T14:51:03;19.70;99.90
3334;DHT22;1679;50.392;8.008;2023-09-19T14:53:30;19.70;99.90
3334;DHT22;1679;50.392;8.008;2023-09-19T14:55:56;19.80;99.90
3334;DHT22;1679;50.392;8.008;2023-09-19T14:58:21;19.80;99.90
3334;DHT22;1679;50.392;8.008;2023-09-19T15:00:47;19.90;99.90
3334;DHT22;1679;50.392;8.008;2023-09-19T15:03:14;19.90;99.90
3334;DHT22;1679;50.392;8.008;2023-09-19T15:05:40;19.90;99.90
3334;DHT22;1679;50.392;8.008;2023-09-19T15:08:07;19.80;99.90
3334;DHT22;1679;50.392;8.008;2023-09-19T15:10:32;19.80;99.90
3334;DHT22;1679;50.392;8.008;2023-09-19T15:12:58;19.70;99.90
3334;DHT22;1679;50.392;8.008;2023-09-19T15:15:23;19.70;99.90
3334;DHT22;1679;50.392;8.008;2023-09-19T15:17:50;19.70;99.90
3334;DHT22;1679;50.392;8.008;2023-09-19T15:20:17;19.70;99.90
3334;DHT22;1679;50.392;8.008;2023-09-19T15:22:43;19.80;99.90
3334;DHT22;1679;50.392;8.008;2023-09-19T15:25:10;19.80;99.90
3334;DHT22;1679;50.392;8.008;2023-09-19T15:27:36;19.80;99.90
3334;DHT22;1679;50.392;8.008;2023-09-19T15:30:02;19.80;99.90
3334;DHT22;1679;50.392;8.008;2023-09-19T15:32:30;19.90;99.90
3334;DHT22;1679;50.392;8.008;2023-09-19T15:34:56;19.80;99.90
3334;DHT22;1679;50.392;8.008;2023-09-19T15:37:21;19.80;99.90
3334;DHT22;1679;50.392;8.008;2023-09-19T15:39:47;19.90;99.90
3334;DHT22;1679;50.392;8.008;2023-09-19T15:42:15;19.80;99.90
3334;DHT22;1679;50.392;8.008;2023-09-19T15:44:42;19.80;99.90
3334;DHT22;1679;50.392;8.008;2023-09-19T15:47:10;19.80;99.90
3334;DHT22;1679;50.392;8.008;2023-09-19T15:49:36;19.80;99.90
3334;DHT22;1679;50.392;8.008;2023-09-19T15:52:03;19.70;99.90
3334;DHT22;1679;50.392;8.008;2023-09-19T15:54:28;19.70;99.90
3334;DHT22;1679;50.392;8.008;2023-09-19T15:56:54;19.70;99.90
3334;DHT22;1679;50.392;8.008;2023-09-19T15:59:30;19.60;99.90
3334;DHT22;1679;50.392;8.008;2023-09-19T16:01:56;19.60;99.90
3334;DHT22;1679;50.392;8.008;2023-09-19T16:04:21;19.50;99.90
3334;DHT22;1679;50.392;8.008;2023-09-19T16:06:48;19.50;99.90
3334;DHT22;1679;50.392;8.008;2023-09-19T16:09:13;19.50;99.90
3334;DHT22;1679;50.392;8.008;2023-09-19T16:11:41;19.50;99.90
3334;DHT22;1679;50.392;8.008;2023-09-19T16:14:08;19.40;99.90
3334;DHT22;1679;50.392;8.008;2023-09-19T16:16:37;19.40;99.90
3334;DHT22;1679;50.392;8.008;2023-09-19T16:19:04;19.40;99.90
3334;DHT22;1679;50.392;8.008;2023-09-19T16:21:33;19.30;99.90
3334;DHT22;1679;50.392;8.008;2023-09-19T16:24:01;19.30;99.90
3334;DHT22;1679;50.392;8.008;2023-09-19T16:26:29;19.30;99.90
3334;DHT22;1679;50.392;8.008;2023-09-19T16:28:57;19.20;99.90
3334;DHT22;1679;50.392;8.008;2023-09-19T16:31:26;19.20;99.90
3334;DHT22;1679;50.392;8.008;2023-09-19T16:33:53;19.20;99.90
3334;DHT22;1679;50.392;8.008;2023-09-19T16:36:19;19.20;99.90
3334;DHT22;1679;50.392;8.008;2023-09-19T16:38:47;19.10;99.90
3334;DHT22;1679;50.392;8.008;2023-09-19T16:41:17;19.10;99.90
3334;DHT22;1679;50.392;8.008;2023-09-19T16:43:45;19.00;99.90